Union Square, New Jersey
Current Conditions -  °F | °C
As of 9:51 AM on Friday 24 Oct 2014 (Local Time) from KEWR Reporting Station
Broken Clouds Broken Clouds  
Wind Chill: 56°   Ceiling: 4000
Heat Index: 56°   Visibility: 10mi
Dew Point: 43°   Wind: 17mph
Humidity: 62%   Direction: 320°NW
Pressure: 29.83"   Gusts: 24mph
Location:  40.6709°N, 74.179°W
Report Text: KEWR 241351Z 32015G21KT 10SM SCT028 BKN040 BKN150 13/06 A2983 RMK AO2 SLP100 SCT V BKN T01330061
Loading
Personal Weather Stations






























Interactive Weather Map
Tropical Storm Tracking
New forecast layout! Learn more

10-Day Weather Forecast

Advertisements
Track Severe Weather on mobile